createdAt,value
2017-09-24T00:02:03.370Z,89.35
2017-09-24T00:04:30.191Z,91.05
2017-09-24T00:06:57.183Z,92.11
2017-09-24T00:09:23.959Z,92.93
2017-09-24T00:11:50.769Z,93.65
2017-09-24T00:14:17.569Z,91.64
2017-09-24T00:16:44.359Z,90.83
2017-09-24T00:19:11.163Z,91.54
2017-09-24T00:21:38.001Z,91.15
2017-09-24T00:24:05.542Z,90.60
2017-09-24T00:26:32.403Z,90.83
2017-09-24T00:28:59.321Z,92.11
2017-09-24T00:31:26.197Z,91.64
2017-09-24T00:33:53.053Z,91.83
2017-09-24T00:36:19.858Z,91.17
2017-09-24T00:38:46.697Z,87.78
2017-09-24T00:41:13.565Z,86.94
2017-09-24T00:43:40.450Z,88.53
2017-09-24T00:46:07.341Z,89.72
2017-09-24T00:48:34.943Z,90.34
2017-09-24T00:51:01.768Z,90.71
2017-09-24T00:53:29.426Z,91.29
2017-09-24T00:55:56.322Z,90.90
2017-09-24T00:58:23.987Z,91.92
2017-09-24T01:00:51.594Z,92.78
2017-09-24T01:03:18.484Z,92.28
2017-09-24T01:05:45.345Z,92.82
2017-09-24T01:08:12.187Z,92.81
2017-09-24T01:10:39.074Z,93.22
2017-09-24T01:13:05.969Z,90.40
2017-09-24T01:15:34.207Z,89.86
2017-09-24T01:18:01.070Z,91.46
2017-09-24T01:20:27.972Z,91.83
2017-09-24T01:22:54.874Z,92.84
2017-09-24T01:25:21.728Z,92.90
2017-09-24T01:27:49.362Z,92.55
2017-09-24T01:30:16.259Z,91.93
2017-09-24T01:32:43.927Z,91.25
2017-09-24T01:35:10.806Z,88.36
2017-09-24T01:37:38.475Z,86.53
2017-09-24T01:40:05.357Z,85.82
2017-09-24T01:42:32.968Z,85.21
2017-09-24T01:44:59.874Z,85.71
2017-09-24T01:47:26.745Z,86.11
2017-09-24T01:49:54.391Z,86.51
2017-09-24T01:52:21.339Z,87.22
2017-09-24T01:54:48.250Z,86.08
2017-09-24T01:57:15.879Z,86.62
2017-09-24T01:59:42.768Z,87.50
2017-09-24T02:02:09.627Z,87.51
2017-09-24T02:04:36.495Z,85.43
2017-09-24T02:07:03.381Z,87.50
2017-09-24T02:09:30.999Z,89.53
2017-09-24T02:11:57.820Z,89.86
2017-09-24T02:14:25.356Z,87.82
2017-09-24T02:16:52.160Z,87.90
2017-09-24T02:19:18.990Z,87.09
2017-09-24T02:21:45.808Z,88.17
2017-09-24T02:24:12.645Z,87.96
2017-09-24T02:26:40.210Z,89.21
2017-09-24T02:29:07.043Z,90.66
2017-09-24T02:31:33.879Z,92.85
2017-09-24T02:34:00.739Z,93.22
2017-09-24T02:36:27.601Z,92.41
2017-09-24T02:38:54.432Z,90.40
2017-09-24T02:41:21.980Z,91.22
2017-09-24T03:02:50.147Z,86.09
2017-09-24T03:05:16.959Z,88.86
2017-09-24T03:07:43.787Z,86.45
2017-09-24T03:10:10.587Z,84.52
2017-09-24T03:12:37.415Z,84.66
2017-09-24T03:15:04.209Z,84.38
2017-09-24T03:17:31.016Z,87.26
2017-09-24T03:19:57.800Z,90.38
2017-09-24T03:22:25.349Z,88.95
2017-09-24T03:24:52.210Z,89.58
2017-09-24T03:27:19.051Z,88.22
2017-09-24T03:29:45.864Z,87.26
2017-09-24T03:32:13.398Z,86.46
2017-09-24T03:34:40.205Z,86.75
2017-09-24T03:37:07.058Z,86.80
2017-09-24T03:39:34.594Z,84.40
2017-09-24T03:42:01.419Z,85.39
2017-09-24T03:44:28.222Z,86.06
2017-09-24T03:46:55.009Z,89.09
2017-09-24T03:49:21.832Z,88.67
2017-09-24T03:51:48.634Z,86.96
2017-09-24T03:54:15.444Z,84.87
2017-09-24T03:56:42.251Z,85.76
2017-09-24T03:59:09.053Z,84.88
2017-09-24T04:01:35.851Z,87.29
2017-09-24T04:04:02.682Z,84.57
2017-09-24T04:06:29.493Z,84.70
2017-09-24T04:08:56.306Z,83.57
2017-09-24T04:11:23.175Z,83.52
2017-09-24T04:13:50.008Z,83.56
2017-09-24T04:16:16.796Z,83.80
2017-09-24T04:18:43.618Z,83.82
2017-09-24T04:21:10.428Z,84.15
2017-09-24T04:23:37.276Z,85.57
2017-09-24T04:26:04.087Z,85.87
2017-09-24T04:28:31.628Z,89.00
2017-09-24T04:30:58.454Z,90.76
2017-09-24T04:33:25.601Z,90.11
2017-09-24T04:35:52.395Z,89.03
2017-09-24T04:38:19.221Z,89.50
2017-09-24T04:40:46.032Z,91.28
2017-09-24T04:43:12.865Z,90.93
2017-09-24T04:45:39.631Z,88.74
2017-09-24T04:48:06.446Z,89.71
2017-09-24T04:50:33.982Z,90.03
2017-09-24T04:53:00.764Z,90.85
2017-09-24T04:55:27.574Z,88.50
2017-09-24T04:57:54.378Z,90.40
2017-09-24T05:00:21.209Z,91.12
2017-09-24T05:02:47.991Z,89.57
2017-09-24T05:05:14.788Z,90.62
2017-09-24T05:07:42.336Z,89.86
2017-09-24T05:10:09.167Z,90.95
2017-09-24T05:12:35.967Z,92.05
2017-09-24T05:15:02.784Z,92.16
2017-09-24T05:17:29.601Z,92.51
2017-09-24T05:19:56.388Z,91.53
2017-09-24T05:22:23.187Z,92.73
2017-09-24T05:24:50.011Z,92.45
2017-09-24T05:27:16.804Z,93.00
2017-09-24T05:29:43.622Z,92.77
2017-09-24T05:32:10.412Z,92.52
2017-09-24T05:34:37.286Z,93.09
2017-09-24T05:37:04.068Z,89.43
2017-09-24T05:39:30.880Z,86.94
2017-09-24T05:41:57.675Z,86.14
2017-09-24T05:44:24.513Z,85.38
2017-09-24T05:46:51.318Z,85.95
2017-09-24T05:49:18.154Z,85.90
2017-09-24T05:51:44.997Z,86.33
2017-09-24T05:54:11.801Z,85.20
2017-09-24T05:56:38.602Z,85.06
2017-09-24T05:59:05.430Z,85.68
2017-09-24T06:01:33.982Z,85.83
2017-09-24T06:04:00.822Z,85.58
2017-09-24T06:06:27.651Z,85.85
2017-09-24T06:08:55.180Z,85.98
2017-09-24T06:11:21.975Z,85.76
2017-09-24T06:13:48.840Z,85.96
2017-09-24T06:16:15.710Z,85.76
2017-09-24T06:18:42.696Z,84.83
2017-09-24T06:21:10.090Z,85.04
2017-09-24T06:23:36.937Z,84.75
2017-09-24T06:26:03.764Z,85.14
2017-09-24T06:28:31.369Z,84.51
2017-09-24T06:30:58.196Z,84.56
2017-09-24T06:33:25.021Z,84.58
2017-09-24T06:35:51.850Z,87.20
2017-09-24T06:38:18.702Z,85.50
2017-09-24T06:40:46.262Z,85.02
2017-09-24T06:43:13.063Z,88.36
2017-09-24T06:45:39.888Z,87.94
2017-09-24T06:48:07.706Z,86.15
2017-09-24T06:50:34.494Z,84.98
2017-09-24T06:53:01.318Z,84.77
2017-09-24T06:55:28.108Z,84.33
2017-09-24T06:57:54.922Z,84.27
2017-09-24T07:00:22.517Z,87.83
2017-09-24T07:02:49.388Z,86.76
2017-09-24T07:05:16.195Z,89.36
2017-09-24T07:07:43.033Z,88.32
2017-09-24T07:10:09.835Z,89.72
2017-09-24T07:12:36.620Z,90.75
2017-09-24T07:15:03.487Z,89.38
2017-09-24T07:17:31.055Z,89.96
2017-09-24T07:20:00.070Z,88.99
2017-09-24T07:22:26.914Z,85.84
2017-09-24T07:24:54.458Z,85.09
2017-09-24T07:27:21.283Z,88.11
2017-09-24T07:29:48.133Z,89.74
2017-09-24T07:32:14.954Z,87.24
2017-09-24T07:34:41.762Z,85.20
2017-09-24T07:37:08.641Z,84.86
2017-09-24T07:39:35.502Z,88.09
2017-09-24T07:42:02.319Z,89.78
2017-09-24T07:44:29.864Z,90.71
2017-09-24T07:46:56.684Z,89.61
2017-09-24T07:49:23.472Z,89.98
2017-09-24T07:51:50.319Z,90.34
2017-09-24T07:54:17.151Z,87.42
2017-09-24T07:56:43.988Z,87.89
2017-09-24T07:59:11.599Z,90.57
2017-09-24T08:01:38.430Z,85.88
2017-09-24T08:04:05.279Z,87.92
2017-09-24T08:06:32.068Z,90.01
2017-09-24T08:08:58.934Z,88.73
2017-09-24T08:11:25.754Z,90.17
2017-09-24T08:13:52.562Z,87.80
2017-09-24T08:16:19.401Z,89.15
2017-09-24T08:18:46.963Z,90.07
2017-09-24T08:21:13.807Z,90.37
2017-09-24T08:23:40.637Z,88.21
2017-09-24T08:26:07.460Z,88.50
2017-09-24T08:28:34.975Z,89.77
2017-09-24T08:31:01.783Z,86.83
2017-09-24T08:33:29.142Z,85.64
2017-09-24T08:35:56.725Z,88.93
2017-09-24T08:38:23.598Z,85.33
2017-09-24T08:40:51.155Z,84.53
2017-09-24T08:43:17.961Z,83.28
2017-09-24T08:45:44.752Z,86.54
2017-09-24T08:48:11.629Z,87.01
2017-09-24T08:50:38.516Z,85.78
2017-09-24T08:53:05.360Z,87.21
2017-09-24T08:55:32.213Z,87.86
2017-09-24T08:57:59.032Z,87.56
2017-09-24T09:00:25.904Z,88.10
2017-09-24T09:02:52.760Z,86.37
2017-09-24T09:05:19.599Z,86.36
2017-09-24T09:07:46.454Z,86.33
2017-09-24T09:10:13.299Z,84.30
2017-09-24T09:12:40.103Z,86.02
2017-09-24T09:15:06.920Z,84.99
2017-09-24T09:17:33.713Z,82.89
2017-09-24T09:20:00.544Z,84.36
2017-09-24T09:22:27.369Z,84.37
2017-09-24T09:24:54.165Z,85.08
2017-09-24T09:27:20.960Z,84.61
2017-09-24T09:29:47.783Z,85.12
2017-09-24T09:32:14.657Z,82.93
2017-09-24T09:35:00.336Z,82.38
2017-09-24T09:37:27.135Z,79.79
2017-09-24T09:39:54.287Z,80.32
2017-09-24T09:42:21.199Z,79.50
2017-09-24T09:44:52.008Z,77.58
2017-09-24T09:47:26.053Z,76.62
2017-09-24T09:49:53.111Z,78.07
2017-09-24T09:52:20.135Z,77.59
2017-09-24T09:54:51.269Z,76.39
2017-09-24T09:57:18.551Z,74.45
2017-09-24T09:59:45.724Z,75.24
2017-09-24T10:02:12.977Z,75.56
2017-09-24T10:04:39.849Z,75.34
2017-09-24T10:07:40.594Z,74.89
2017-09-24T10:10:15.559Z,74.80
2017-09-24T10:12:42.449Z,74.45
2017-09-24T10:15:09.321Z,73.39
2017-09-24T10:17:36.735Z,71.61
2017-09-24T10:20:03.589Z,70.94
2017-09-24T10:22:30.452Z,72.22
2017-09-24T10:24:57.268Z,71.75
2017-09-24T10:27:24.093Z,71.37
2017-09-24T10:30:08.966Z,69.83
2017-09-24T10:32:35.849Z,69.91
2017-09-24T10:35:03.549Z,70.93
2017-09-24T10:39:56.971Z,70.41
2017-09-24T10:42:23.779Z,68.83
2017-09-24T10:44:50.642Z,69.06
2017-09-24T10:47:17.521Z,69.96
2017-09-24T10:49:45.057Z,68.86
2017-09-24T10:52:11.900Z,69.72
2017-09-24T10:54:38.708Z,69.53
2017-09-24T10:57:05.544Z,67.26
2017-09-24T10:59:32.347Z,68.12
2017-09-24T11:01:59.975Z,68.64
2017-09-24T11:04:26.800Z,68.48
2017-09-24T11:06:53.645Z,67.85
2017-09-24T11:09:21.198Z,65.92
2017-09-24T11:11:48.002Z,67.26
2017-09-24T11:14:14.820Z,66.68
2017-09-24T11:16:41.662Z,65.94
2017-09-24T11:19:08.506Z,66.00
2017-09-24T11:21:35.352Z,66.91
2017-09-24T11:24:02.194Z,64.91
2017-09-24T11:26:29.755Z,63.43
2017-09-24T11:28:57.400Z,65.33
2017-09-24T11:31:24.215Z,65.31
2017-09-24T11:33:51.083Z,64.70
2017-09-24T11:36:17.911Z,63.46
2017-09-24T11:38:44.736Z,64.38
2017-09-24T11:41:11.563Z,63.34
2017-09-24T11:43:38.375Z,61.25
2017-09-24T11:46:05.200Z,61.47
2017-09-24T11:48:32.017Z,60.69
2017-09-24T11:50:58.873Z,60.51
2017-09-24T11:53:26.076Z,59.54
2017-09-24T11:55:52.891Z,59.54
2017-09-24T11:58:19.771Z,60.44
2017-09-24T12:00:47.364Z,58.23
2017-09-24T12:03:14.924Z,58.81
2017-09-24T12:05:41.787Z,60.42
2017-09-24T12:08:08.640Z,60.41
2017-09-24T12:10:35.545Z,58.60
2017-09-24T12:13:02.355Z,58.45
2017-09-24T12:15:29.183Z,59.31
2017-09-24T12:17:56.102Z,60.88
2017-09-24T12:20:23.675Z,60.13
2017-09-24T12:22:50.479Z,59.21
2017-09-24T12:25:17.319Z,58.94
2017-09-24T12:27:44.900Z,59.28
2017-09-24T12:30:11.781Z,59.74
2017-09-24T12:32:39.363Z,59.81
2017-09-24T12:35:06.152Z,58.79
2017-09-24T12:37:32.976Z,59.60
2017-09-24T12:39:59.822Z,59.60
2017-09-24T12:42:26.670Z,58.98
2017-09-24T12:44:53.440Z,59.93
2017-09-24T12:47:20.243Z,58.66
2017-09-24T12:49:47.082Z,58.58
2017-09-24T12:52:13.955Z,58.47
2017-09-24T12:54:40.756Z,59.61
2017-09-24T12:57:07.549Z,57.75
2017-09-24T12:59:34.382Z,57.84
2017-09-24T13:02:01.980Z,58.10
2017-09-24T13:04:28.846Z,60.08
2017-09-24T13:06:55.690Z,59.44
2017-09-24T13:09:23.316Z,58.81
2017-09-24T13:11:50.103Z,57.17
2017-09-24T13:14:16.917Z,58.10
2017-09-24T13:16:43.737Z,58.77
2017-09-24T13:19:10.574Z,58.48
2017-09-24T13:21:37.391Z,57.60
2017-09-24T13:24:04.194Z,55.67
2017-09-24T13:26:31.026Z,56.98
2017-09-24T13:28:58.076Z,56.88
2017-09-24T13:31:24.857Z,57.26
2017-09-24T13:33:51.682Z,57.74
2017-09-24T13:36:19.214Z,57.08
2017-09-24T13:38:46.026Z,57.13
2017-09-24T13:41:13.560Z,56.97
2017-09-24T13:43:40.368Z,58.36
2017-09-24T13:46:07.157Z,57.54
2017-09-24T13:48:34.019Z,57.28
2017-09-24T13:51:00.845Z,57.10
2017-09-24T13:53:28.407Z,56.83
2017-09-24T13:55:55.994Z,56.29
2017-09-24T13:58:23.611Z,56.23
2017-09-24T14:00:50.415Z,55.36
2017-09-24T14:03:17.216Z,56.25
2017-09-24T14:05:44.023Z,54.84
2017-09-24T14:08:10.820Z,55.88
2017-09-24T14:10:37.603Z,54.66
2017-09-24T14:13:04.429Z,55.39
2017-09-24T14:15:31.985Z,55.77
2017-09-24T14:17:58.779Z,55.15
2017-09-24T14:20:25.578Z,54.88
2017-09-24T14:22:52.407Z,54.60
2017-09-24T14:25:19.239Z,54.23
2017-09-24T14:27:46.062Z,54.88
2017-09-24T14:30:12.906Z,56.19
2017-09-24T14:32:39.801Z,55.31
2017-09-24T14:35:06.599Z,55.24
2017-09-24T14:37:35.047Z,55.49
2017-09-24T14:40:01.883Z,54.28
2017-09-24T14:42:28.696Z,53.04
2017-09-24T14:44:55.512Z,54.73
2017-09-24T14:47:22.349Z,54.91
2017-09-24T14:49:49.178Z,56.58
2017-09-24T14:52:16.042Z,56.40
2017-09-24T14:54:42.933Z,55.83
2017-09-24T14:57:09.806Z,55.45
2017-09-24T14:59:36.639Z,55.88
2017-09-24T15:02:03.496Z,55.36
2017-09-24T15:04:30.380Z,55.90
2017-09-24T15:06:58.981Z,55.77
2017-09-24T15:09:25.859Z,55.35
2017-09-24T15:11:53.454Z,56.33
2017-09-24T15:14:20.369Z,56.53
2017-09-24T15:16:47.950Z,57.25
2017-09-24T15:19:15.588Z,58.40
2017-09-24T15:21:42.507Z,58.22
2017-09-24T15:24:09.383Z,57.61
2017-09-24T15:26:36.280Z,59.38
2017-09-24T15:29:03.251Z,59.21
2017-09-24T15:31:30.084Z,59.21
2017-09-24T15:33:56.949Z,58.04
2017-09-24T15:36:23.764Z,57.74
2017-09-24T15:38:51.336Z,58.09
2017-09-24T15:41:18.919Z,58.55
2017-09-24T15:43:45.750Z,58.64
2017-09-24T15:46:12.718Z,59.43
2017-09-24T15:48:39.551Z,58.87
2017-09-24T15:51:06.388Z,59.85
2017-09-24T15:53:33.281Z,58.79
2017-09-24T15:56:00.136Z,59.14
2017-09-24T15:58:26.993Z,59.37
2017-09-24T16:00:53.819Z,59.15
2017-09-24T16:03:21.385Z,60.19
2017-09-24T16:05:48.217Z,59.43
2017-09-24T16:08:15.053Z,59.84
2017-09-24T16:10:41.871Z,60.20
2017-09-24T16:13:09.421Z,60.33
2017-09-24T16:15:36.258Z,60.76
2017-09-24T16:18:03.106Z,61.34
2017-09-24T16:20:30.046Z,60.72
2017-09-24T16:22:56.953Z,60.69
2017-09-24T16:25:23.771Z,62.03
2017-09-24T16:27:50.649Z,61.32
2017-09-24T16:30:17.527Z,61.14
2017-09-24T16:32:44.374Z,61.46
2017-09-24T16:35:13.292Z,63.04
2017-09-24T16:37:40.881Z,61.17
2017-09-24T16:40:07.724Z,62.49
2017-09-24T16:42:34.548Z,61.56
2017-09-24T16:45:02.136Z,62.94
2017-09-24T16:47:28.969Z,63.01
2017-09-24T16:49:56.337Z,64.56
2017-09-24T16:52:23.275Z,63.94
2017-09-24T16:54:50.130Z,64.15
2017-09-24T16:57:17.007Z,64.62
2017-09-24T16:59:43.871Z,65.32
2017-09-24T17:02:10.719Z,65.51
2017-09-24T17:04:37.604Z,64.69
2017-09-24T17:07:04.417Z,65.34
2017-09-24T17:09:31.281Z,66.17
2017-09-24T17:11:58.162Z,65.66
2017-09-24T17:14:25.018Z,64.53
2017-09-24T17:16:51.999Z,64.19
2017-09-24T17:19:18.875Z,65.77
2017-09-24T17:21:45.868Z,66.00
2017-09-24T17:24:12.720Z,65.44
2017-09-24T17:26:40.515Z,65.33
2017-09-24T17:29:07.364Z,66.60
2017-09-24T17:31:34.194Z,70.04
2017-09-24T17:34:01.075Z,66.94
2017-09-24T17:36:27.875Z,67.14
2017-09-24T17:38:54.751Z,66.66
2017-09-24T17:41:21.578Z,69.91
2017-09-24T17:43:49.190Z,72.18
2017-09-24T17:46:16.038Z,73.36
2017-09-24T17:48:42.914Z,75.12
2017-09-24T17:51:09.833Z,74.64
2017-09-24T17:53:36.830Z,75.88
2017-09-24T17:56:03.740Z,75.42
2017-09-24T17:58:30.626Z,75.61
2017-09-24T18:00:57.593Z,71.46
2017-09-24T18:03:25.195Z,74.16
2017-09-24T18:05:52.040Z,75.30
2017-09-24T18:08:19.024Z,73.66
2017-09-24T18:10:46.196Z,73.61
2017-09-24T18:13:14.104Z,77.86
2017-09-24T18:15:42.653Z,73.32
2017-09-24T18:18:10.037Z,76.52
2017-09-24T18:20:38.432Z,76.51
2017-09-24T18:23:06.401Z,78.10
2017-09-24T18:25:34.996Z,76.60
2017-09-24T18:28:03.415Z,79.48
2017-09-24T18:30:32.282Z,80.05
2017-09-24T18:33:01.226Z,76.81
2017-09-24T18:35:29.599Z,79.15
2017-09-24T18:37:57.539Z,76.23
2017-09-24T18:40:26.996Z,76.64
2017-09-24T18:42:55.663Z,75.16
2017-09-24T18:45:23.646Z,77.27
2017-09-24T18:47:52.358Z,79.18
2017-09-24T18:50:21.759Z,80.62
2017-09-24T18:52:51.151Z,80.21
2017-09-24T18:55:20.016Z,78.85
2017-09-24T18:57:52.013Z,79.59
2017-09-24T19:00:20.673Z,81.98
2017-09-24T19:02:48.526Z,81.24
2017-09-24T19:05:17.159Z,82.60
2017-09-24T19:07:46.022Z,82.17
2017-09-24T19:10:14.867Z,82.64
2017-09-24T19:15:45.739Z,81.20
2017-09-24T19:18:15.334Z,82.90
2017-09-24T19:20:43.966Z,83.52
2017-09-24T19:23:12.785Z,83.75
2017-09-24T19:25:42.920Z,83.83
2017-09-24T19:28:12.632Z,83.14
2017-09-24T19:30:44.329Z,83.95
2017-09-24T19:33:13.097Z,83.39
2017-09-24T19:35:42.006Z,82.97
2017-09-24T19:38:11.267Z,81.19
2017-09-24T19:40:40.024Z,82.58
2017-09-24T19:43:11.549Z,83.62
2017-09-24T19:45:40.607Z,83.96
2017-09-24T19:48:09.448Z,81.00
2017-09-24T19:50:38.669Z,82.85
2017-09-24T19:53:07.371Z,79.82
2017-09-24T19:55:34.573Z,81.42
2017-09-24T19:58:01.487Z,79.82
2017-09-24T20:00:28.463Z,81.78
2017-09-24T20:02:55.326Z,83.94
2017-09-24T20:05:22.432Z,84.60
2017-09-24T20:07:49.299Z,81.02
2017-09-24T20:10:16.685Z,82.45
2017-09-24T20:12:43.504Z,83.66
2017-09-24T20:15:11.112Z,82.66
2017-09-24T20:17:37.970Z,82.58
2017-09-24T20:20:04.849Z,83.37
2017-09-24T20:22:31.661Z,83.93
2017-09-24T20:24:58.498Z,84.05
2017-09-24T20:27:25.341Z,82.50
2017-09-24T20:29:53.562Z,79.44
2017-09-24T20:32:20.700Z,78.25
2017-09-24T20:34:48.315Z,81.00
2017-09-24T20:37:15.644Z,83.06
2017-09-24T20:39:43.766Z,84.98
2017-09-24T20:42:11.851Z,84.41
2017-09-24T20:44:39.373Z,85.94
2017-09-24T20:47:06.846Z,85.48
2017-09-24T20:49:33.953Z,85.73
2017-09-24T20:52:01.593Z,84.55
2017-09-24T20:54:28.814Z,82.61
2017-09-24T20:56:56.063Z,81.52
2017-09-24T20:59:23.595Z,80.00
2017-09-24T21:01:51.835Z,81.69
2017-09-24T21:04:19.415Z,80.15
2017-09-24T21:06:46.332Z,85.33
2017-09-24T21:09:14.047Z,86.57
2017-09-24T21:11:41.475Z,87.02
2017-09-24T21:14:08.397Z,84.39
2017-09-24T21:16:35.960Z,80.69
2017-09-24T21:19:02.797Z,83.20
2017-09-24T21:21:29.642Z,84.42
2017-09-24T21:23:56.465Z,81.86
2017-09-24T21:26:23.317Z,80.25
2017-09-24T21:28:50.954Z,79.68
2017-09-24T21:31:17.797Z,81.36
2017-09-24T21:33:44.628Z,82.67
2017-09-24T21:36:12.219Z,83.51
2017-09-24T21:38:39.077Z,85.11
2017-09-24T21:41:05.912Z,86.50
2017-09-24T21:43:32.752Z,87.23
2017-09-24T21:45:59.584Z,87.58
2017-09-24T21:48:26.433Z,85.33
2017-09-24T21:50:53.279Z,82.40
2017-09-24T21:53:20.117Z,81.66
2017-09-24T21:55:47.679Z,82.40
2017-09-24T21:58:14.544Z,84.76
2017-09-24T22:00:41.437Z,85.39
2017-09-24T22:03:09.510Z,85.69
2017-09-24T22:05:37.075Z,85.62
2017-09-24T22:08:03.951Z,84.39
2017-09-24T22:10:30.809Z,85.23
2017-09-24T22:12:57.663Z,86.02
2017-09-24T22:15:24.538Z,83.89
2017-09-24T22:17:52.080Z,85.09
2017-09-24T22:20:18.884Z,85.41
2017-09-24T22:22:45.695Z,83.48
2017-09-24T22:25:12.498Z,81.25
2017-09-24T22:27:40.086Z,79.87
2017-09-24T22:30:07.632Z,80.12
2017-09-24T22:32:34.454Z,82.09
2017-09-24T22:35:01.240Z,84.57
2017-09-24T22:37:28.027Z,85.97
2017-09-24T22:39:54.800Z,86.42
2017-09-24T22:42:22.321Z,83.91
2017-09-24T22:44:49.941Z,84.61
2017-09-24T22:47:16.782Z,86.53
2017-09-24T22:49:43.623Z,86.99
2017-09-24T22:52:10.467Z,86.76
2017-09-24T22:54:37.251Z,86.96
2017-09-24T22:57:04.047Z,86.07
2017-09-24T22:59:31.024Z,86.30
2017-09-24T23:01:58.821Z,86.26
2017-09-24T23:04:25.600Z,85.64
2017-09-24T23:06:52.457Z,86.33
2017-09-24T23:09:19.256Z,86.51
2017-09-24T23:11:46.082Z,87.79
2017-09-24T23:14:12.894Z,87.09
2017-09-24T23:16:39.679Z,86.28
2017-09-24T23:19:06.516Z,86.30
2017-09-24T23:21:33.304Z,85.04
2017-09-24T23:24:00.100Z,85.55
2017-09-24T23:26:26.890Z,83.08
2017-09-24T23:28:53.701Z,83.80
2017-09-24T23:31:20.558Z,84.20
2017-09-24T23:33:47.354Z,84.33
2017-09-24T23:36:14.338Z,87.48
2017-09-24T23:38:41.294Z,87.73
2017-09-24T23:41:08.351Z,88.47
2017-09-24T23:43:35.189Z,88.25
2017-09-24T23:46:02.156Z,89.83
2017-09-24T23:48:28.965Z,89.26
2017-09-24T23:50:56.634Z,89.04
2017-09-24T23:53:23.440Z,89.77
2017-09-24T23:55:50.263Z,89.69
2017-09-24T23:58:18.010Z,88.31
